sensor_id;sensor_type;location;lat;lon;timestamp;P1;durP1;ratioP1;P2;durP2;ratioP2
53646;SDS011;39550;52.230;5.194;2023-10-09T00:01:39;22.90;;;13.48;;
53646;SDS011;39550;52.230;5.194;2023-10-09T00:04:09;18.10;;;12.05;;
53646;SDS011;39550;52.230;5.194;2023-10-09T00:06:36;20.02;;;12.77;;
53646;SDS011;39550;52.230;5.194;2023-10-09T00:09:04;21.25;;;13.57;;
53646;SDS011;39550;52.230;5.194;2023-10-09T00:11:42;18.83;;;13.38;;
53646;SDS011;39550;52.230;5.194;2023-10-09T00:14:09;18.13;;;12.52;;
53646;SDS011;39550;52.230;5.194;2023-10-09T00:16:40;19.60;;;13.15;;
53646;SDS011;39550;52.230;5.194;2023-10-09T00:19:13;17.75;;;12.73;;
53646;SDS011;39550;52.230;5.194;2023-10-09T00:21:45;18.73;;;12.38;;
53646;SDS011;39550;52.230;5.194;2023-10-09T00:24:11;21.38;;;13.52;;
53646;SDS011;39550;52.230;5.194;2023-10-09T00:26:50;18.90;;;12.60;;
53646;SDS011;39550;52.230;5.194;2023-10-09T00:29:17;21.85;;;13.80;;
53646;SDS011;39550;52.230;5.194;2023-10-09T00:31:49;17.65;;;13.27;;
53646;SDS011;39550;52.230;5.194;2023-10-09T00:34:16;18.98;;;12.85;;
53646;SDS011;39550;52.230;5.194;2023-10-09T00:36:45;18.45;;;12.77;;
53646;SDS011;39550;52.230;5.194;2023-10-09T00:39:17;19.30;;;12.85;;
53646;SDS011;39550;52.230;5.194;2023-10-09T00:42:07;19.75;;;12.50;;
53646;SDS011;39550;52.230;5.194;2023-10-09T00:44:32;19.63;;;13.25;;
53646;SDS011;39550;52.230;5.194;2023-10-09T00:47:13;20.15;;;12.77;;
53646;SDS011;39550;52.230;5.194;2023-10-09T00:49:56;19.52;;;13.77;;
53646;SDS011;39550;52.230;5.194;2023-10-09T00:52:33;18.80;;;13.93;;
53646;SDS011;39550;52.230;5.194;2023-10-09T00:55:17;19.55;;;13.32;;
53646;SDS011;39550;52.230;5.194;2023-10-09T00:57:52;16.83;;;11.68;;
53646;SDS011;39550;52.230;5.194;2023-10-09T01:00:25;19.45;;;13.95;;
53646;SDS011;39550;52.230;5.194;2023-10-09T01:03:06;19.58;;;13.88;;
53646;SDS011;39550;52.230;5.194;2023-10-09T01:05:38;19.10;;;12.60;;
53646;SDS011;39550;52.230;5.194;2023-10-09T01:08:10;19.45;;;13.30;;
53646;SDS011;39550;52.230;5.194;2023-10-09T01:10:46;17.80;;;12.85;;
53646;SDS011;39550;52.230;5.194;2023-10-09T01:13:22;19.70;;;12.88;;
53646;SDS011;39550;52.230;5.194;2023-10-09T01:15:56;17.05;;;11.75;;
53646;SDS011;39550;52.230;5.194;2023-10-09T01:18:24;20.65;;;12.45;;
53646;SDS011;39550;52.230;5.194;2023-10-09T01:20:57;18.20;;;12.15;;
53646;SDS011;39550;52.230;5.194;2023-10-09T01:23:22;18.75;;;12.35;;
53646;SDS011;39550;52.230;5.194;2023-10-09T01:25:48;18.27;;;13.35;;
53646;SDS011;39550;52.230;5.194;2023-10-09T01:28:15;18.55;;;12.88;;
53646;SDS011;39550;52.230;5.194;2023-10-09T01:30:41;17.30;;;12.38;;
53646;SDS011;39550;52.230;5.194;2023-10-09T01:33:10;18.05;;;12.73;;
53646;SDS011;39550;52.230;5.194;2023-10-09T01:35:52;16.23;;;11.48;;
53646;SDS011;39550;52.230;5.194;2023-10-09T01:38:24;18.13;;;12.85;;
53646;SDS011;39550;52.230;5.194;2023-10-09T01:41:16;19.10;;;12.48;;
53646;SDS011;39550;52.230;5.194;2023-10-09T01:43:44;17.98;;;12.40;;
53646;SDS011;39550;52.230;5.194;2023-10-09T01:46:11;17.13;;;12.38;;
53646;SDS011;39550;52.230;5.194;2023-10-09T01:48:37;18.20;;;12.23;;
53646;SDS011;39550;52.230;5.194;2023-10-09T01:51:05;16.30;;;12.52;;
53646;SDS011;39550;52.230;5.194;2023-10-09T01:53:31;16.02;;;12.05;;
53646;SDS011;39550;52.230;5.194;2023-10-09T01:56:07;18.95;;;12.50;;
53646;SDS011;39550;52.230;5.194;2023-10-09T01:58:34;16.77;;;12.13;;
53646;SDS011;39550;52.230;5.194;2023-10-09T02:00:59;19.30;;;12.88;;
53646;SDS011;39550;52.230;5.194;2023-10-09T02:03:27;18.17;;;12.55;;
53646;SDS011;39550;52.230;5.194;2023-10-09T02:05:54;16.77;;;11.60;;
53646;SDS011;39550;52.230;5.194;2023-10-09T02:08:37;16.45;;;11.65;;
53646;SDS011;39550;52.230;5.194;2023-10-09T02:11:03;17.70;;;11.98;;
53646;SDS011;39550;52.230;5.194;2023-10-09T02:13:28;15.40;;;11.73;;
53646;SDS011;39550;52.230;5.194;2023-10-09T02:15:59;17.95;;;12.35;;
53646;SDS011;39550;52.230;5.194;2023-10-09T02:18:41;14.95;;;11.88;;
53646;SDS011;39550;52.230;5.194;2023-10-09T02:21:20;17.65;;;11.63;;
53646;SDS011;39550;52.230;5.194;2023-10-09T02:23:58;15.70;;;11.73;;
53646;SDS011;39550;52.230;5.194;2023-10-09T02:26:29;17.80;;;12.50;;
53646;SDS011;39550;52.230;5.194;2023-10-09T02:29:17;16.05;;;12.15;;
53646;SDS011;39550;52.230;5.194;2023-10-09T02:31:45;16.08;;;11.13;;
53646;SDS011;39550;52.230;5.194;2023-10-09T02:34:16;14.27;;;11.05;;
53646;SDS011;39550;52.230;5.194;2023-10-09T02:36:46;17.05;;;11.95;;
53646;SDS011;39550;52.230;5.194;2023-10-09T02:39:22;14.40;;;11.27;;
53646;SDS011;39550;52.230;5.194;2023-10-09T02:41:53;16.63;;;11.77;;
53646;SDS011;39550;52.230;5.194;2023-10-09T02:44:25;16.00;;;11.00;;
53646;SDS011;39550;52.230;5.194;2023-10-09T02:46:51;19.35;;;11.98;;
53646;SDS011;39550;52.230;5.194;2023-10-09T02:51:46;14.55;;;10.93;;
53646;SDS011;39550;52.230;5.194;2023-10-09T02:54:18;13.82;;;10.52;;
53646;SDS011;39550;52.230;5.194;2023-10-09T02:56:47;16.80;;;10.65;;
53646;SDS011;39550;52.230;5.194;2023-10-09T02:59:20;15.10;;;10.25;;
53646;SDS011;39550;52.230;5.194;2023-10-09T03:01:47;16.40;;;11.38;;
53646;SDS011;39550;52.230;5.194;2023-10-09T03:04:13;14.95;;;10.70;;
53646;SDS011;39550;52.230;5.194;2023-10-09T03:06:40;15.00;;;11.48;;
53646;SDS011;39550;52.230;5.194;2023-10-09T03:09:16;17.23;;;11.60;;
53646;SDS011;39550;52.230;5.194;2023-10-09T03:11:51;13.35;;;9.80;;
53646;SDS011;39550;52.230;5.194;2023-10-09T03:14:22;15.07;;;11.30;;
53646;SDS011;39550;52.230;5.194;2023-10-09T03:16:55;13.75;;;10.27;;
53646;SDS011;39550;52.230;5.194;2023-10-09T03:19:27;13.02;;;10.23;;
53646;SDS011;39550;52.230;5.194;2023-10-09T03:21:54;16.92;;;11.43;;
53646;SDS011;39550;52.230;5.194;2023-10-09T03:24:22;12.95;;;10.25;;
53646;SDS011;39550;52.230;5.194;2023-10-09T03:26:48;16.15;;;10.77;;
53646;SDS011;39550;52.230;5.194;2023-10-09T03:29:14;14.35;;;9.85;;
53646;SDS011;39550;52.230;5.194;2023-10-09T03:31:40;15.30;;;10.60;;
53646;SDS011;39550;52.230;5.194;2023-10-09T03:34:08;15.90;;;9.93;;
53646;SDS011;39550;52.230;5.194;2023-10-09T03:36:35;12.05;;;9.00;;
53646;SDS011;39550;52.230;5.194;2023-10-09T03:39:06;14.65;;;10.55;;
53646;SDS011;39550;52.230;5.194;2023-10-09T03:42:04;14.60;;;9.90;;
53646;SDS011;39550;52.230;5.194;2023-10-09T03:44:31;13.63;;;9.20;;
53646;SDS011;39550;52.230;5.194;2023-10-09T03:47:00;15.48;;;9.27;;
53646;SDS011;39550;52.230;5.194;2023-10-09T03:49:26;14.88;;;8.98;;
53646;SDS011;39550;52.230;5.194;2023-10-09T03:51:52;14.27;;;9.73;;
53646;SDS011;39550;52.230;5.194;2023-10-09T03:54:18;18.60;;;10.68;;
53646;SDS011;39550;52.230;5.194;2023-10-09T03:56:47;12.65;;;10.23;;
53646;SDS011;39550;52.230;5.194;2023-10-09T03:59:19;12.77;;;8.80;;
53646;SDS011;39550;52.230;5.194;2023-10-09T04:04:13;13.02;;;9.45;;
53646;SDS011;39550;52.230;5.194;2023-10-09T04:06:39;12.82;;;8.93;;
53646;SDS011;39550;52.230;5.194;2023-10-09T04:09:10;13.35;;;9.25;;
53646;SDS011;39550;52.230;5.194;2023-10-09T04:14:22;12.15;;;9.25;;
53646;SDS011;39550;52.230;5.194;2023-10-09T04:16:58;12.35;;;8.88;;
53646;SDS011;39550;52.230;5.194;2023-10-09T04:19:34;14.02;;;9.02;;
53646;SDS011;39550;52.230;5.194;2023-10-09T04:22:13;12.73;;;9.05;;
53646;SDS011;39550;52.230;5.194;2023-10-09T04:24:51;15.30;;;9.63;;
53646;SDS011;39550;52.230;5.194;2023-10-09T04:27:16;13.68;;;8.50;;
53646;SDS011;39550;52.230;5.194;2023-10-09T04:29:42;12.43;;;8.80;;
53646;SDS011;39550;52.230;5.194;2023-10-09T04:32:12;12.18;;;8.77;;
53646;SDS011;39550;52.230;5.194;2023-10-09T04:34:41;13.43;;;8.98;;
53646;SDS011;39550;52.230;5.194;2023-10-09T04:37:14;12.02;;;8.18;;
53646;SDS011;39550;52.230;5.194;2023-10-09T04:39:43;12.77;;;8.77;;
53646;SDS011;39550;52.230;5.194;2023-10-09T04:42:28;13.18;;;9.10;;
53646;SDS011;39550;52.230;5.194;2023-10-09T04:45:16;12.60;;;8.75;;
53646;SDS011;39550;52.230;5.194;2023-10-09T04:47:41;12.15;;;8.52;;
53646;SDS011;39550;52.230;5.194;2023-10-09T04:50:31;13.00;;;8.70;;
53646;SDS011;39550;52.230;5.194;2023-10-09T04:52:57;12.30;;;8.98;;
53646;SDS011;39550;52.230;5.194;2023-10-09T04:55:38;12.70;;;9.05;;
53646;SDS011;39550;52.230;5.194;2023-10-09T04:58:09;12.23;;;8.18;;
53646;SDS011;39550;52.230;5.194;2023-10-09T05:03:04;9.73;;;7.22;;
53646;SDS011;39550;52.230;5.194;2023-10-09T05:05:37;14.90;;;8.65;;
53646;SDS011;39550;52.230;5.194;2023-10-09T05:08:06;12.20;;;7.88;;
53646;SDS011;39550;52.230;5.194;2023-10-09T05:10:47;11.60;;;8.05;;
53646;SDS011;39550;52.230;5.194;2023-10-09T05:13:22;12.27;;;8.25;;
53646;SDS011;39550;52.230;5.194;2023-10-09T05:16:08;12.48;;;8.20;;
53646;SDS011;39550;52.230;5.194;2023-10-09T05:18:47;13.65;;;7.93;;
53646;SDS011;39550;52.230;5.194;2023-10-09T05:21:24;10.45;;;7.20;;
53646;SDS011;39550;52.230;5.194;2023-10-09T05:24:00;10.02;;;7.85;;
53646;SDS011;39550;52.230;5.194;2023-10-09T05:26:47;11.35;;;8.10;;
53646;SDS011;39550;52.230;5.194;2023-10-09T05:29:14;13.05;;;8.65;;
53646;SDS011;39550;52.230;5.194;2023-10-09T05:31:59;11.90;;;8.40;;
53646;SDS011;39550;52.230;5.194;2023-10-09T05:34:33;15.55;;;8.23;;
53646;SDS011;39550;52.230;5.194;2023-10-09T05:37:02;10.55;;;7.47;;
53646;SDS011;39550;52.230;5.194;2023-10-09T05:39:48;11.43;;;6.93;;
53646;SDS011;39550;52.230;5.194;2023-10-09T05:42:28;12.88;;;7.82;;
53646;SDS011;39550;52.230;5.194;2023-10-09T05:45:08;12.32;;;7.57;;
53646;SDS011;39550;52.230;5.194;2023-10-09T05:47:50;11.05;;;6.90;;
53646;SDS011;39550;52.230;5.194;2023-10-09T05:52:59;10.38;;;7.38;;
53646;SDS011;39550;52.230;5.194;2023-10-09T05:55:25;12.32;;;8.05;;
53646;SDS011;39550;52.230;5.194;2023-10-09T05:58:03;10.73;;;7.40;;
53646;SDS011;39550;52.230;5.194;2023-10-09T06:01:04;10.50;;;7.13;;
53646;SDS011;39550;52.230;5.194;2023-10-09T06:03:48;10.68;;;7.38;;
53646;SDS011;39550;52.230;5.194;2023-10-09T06:06:14;14.20;;;7.75;;
53646;SDS011;39550;52.230;5.194;2023-10-09T06:09:08;10.18;;;7.28;;
53646;SDS011;39550;52.230;5.194;2023-10-09T06:11:48;12.32;;;7.05;;
53646;SDS011;39550;52.230;5.194;2023-10-09T06:14:17;14.13;;;8.27;;
53646;SDS011;39550;52.230;5.194;2023-10-09T06:16:53;11.27;;;7.00;;
53646;SDS011;39550;52.230;5.194;2023-10-09T06:19:22;10.27;;;7.30;;
53646;SDS011;39550;52.230;5.194;2023-10-09T06:21:54;12.27;;;8.50;;
53646;SDS011;39550;52.230;5.194;2023-10-09T06:24:29;14.27;;;8.13;;
53646;SDS011;39550;52.230;5.194;2023-10-09T06:27:08;10.70;;;7.80;;
53646;SDS011;39550;52.230;5.194;2023-10-09T06:29:35;14.32;;;8.60;;
53646;SDS011;39550;52.230;5.194;2023-10-09T06:32:07;12.65;;;7.70;;
53646;SDS011;39550;52.230;5.194;2023-10-09T06:34:59;13.95;;;9.10;;
53646;SDS011;39550;52.230;5.194;2023-10-09T06:40:49;13.50;;;8.50;;
53646;SDS011;39550;52.230;5.194;2023-10-09T06:43:30;12.88;;;8.48;;
53646;SDS011;39550;52.230;5.194;2023-10-09T06:45:57;16.23;;;9.52;;
53646;SDS011;39550;52.230;5.194;2023-10-09T06:48:26;12.75;;;8.13;;
53646;SDS011;39550;52.230;5.194;2023-10-09T06:51:07;13.38;;;8.82;;
53646;SDS011;39550;52.230;5.194;2023-10-09T06:53:55;14.57;;;9.10;;
53646;SDS011;39550;52.230;5.194;2023-10-09T06:56:21;11.70;;;7.95;;
53646;SDS011;39550;52.230;5.194;2023-10-09T06:59:11;12.20;;;8.48;;
53646;SDS011;39550;52.230;5.194;2023-10-09T07:02:02;13.68;;;9.00;;
53646;SDS011;39550;52.230;5.194;2023-10-09T07:04:37;15.70;;;8.60;;
53646;SDS011;39550;52.230;5.194;2023-10-09T07:07:06;14.00;;;9.20;;
53646;SDS011;39550;52.230;5.194;2023-10-09T07:09:38;14.93;;;8.63;;
53646;SDS011;39550;52.230;5.194;2023-10-09T07:12:22;16.23;;;8.60;;
53646;SDS011;39550;52.230;5.194;2023-10-09T07:18:13;15.02;;;9.20;;
53646;SDS011;39550;52.230;5.194;2023-10-09T07:20:44;14.20;;;9.40;;
53646;SDS011;39550;52.230;5.194;2023-10-09T07:23:24;11.77;;;8.40;;
53646;SDS011;39550;52.230;5.194;2023-10-09T07:28:42;15.48;;;8.52;;
53646;SDS011;39550;52.230;5.194;2023-10-09T07:31:08;12.45;;;8.07;;
53646;SDS011;39550;52.230;5.194;2023-10-09T07:33:49;13.25;;;9.35;;
53646;SDS011;39550;52.230;5.194;2023-10-09T07:36:24;15.70;;;9.00;;
53646;SDS011;39550;52.230;5.194;2023-10-09T07:39:02;13.68;;;8.57;;
53646;SDS011;39550;52.230;5.194;2023-10-09T07:41:37;14.93;;;8.43;;
53646;SDS011;39550;52.230;5.194;2023-10-09T07:44:09;12.68;;;8.77;;
53646;SDS011;39550;52.230;5.194;2023-10-09T07:46:44;14.05;;;7.72;;
53646;SDS011;39550;52.230;5.194;2023-10-09T07:49:38;14.35;;;8.35;;
53646;SDS011;39550;52.230;5.194;2023-10-09T07:52:04;14.70;;;7.95;;
53646;SDS011;39550;52.230;5.194;2023-10-09T07:54:30;14.40;;;8.77;;
53646;SDS011;39550;52.230;5.194;2023-10-09T07:56:59;13.70;;;8.35;;
53646;SDS011;39550;52.230;5.194;2023-10-09T07:59:34;12.85;;;7.43;;
53646;SDS011;39550;52.230;5.194;2023-10-09T08:02:06;12.50;;;7.15;;
53646;SDS011;39550;52.230;5.194;2023-10-09T08:04:38;12.73;;;8.05;;
53646;SDS011;39550;52.230;5.194;2023-10-09T08:07:13;11.70;;;7.75;;
53646;SDS011;39550;52.230;5.194;2023-10-09T08:09:59;12.27;;;6.97;;
53646;SDS011;39550;52.230;5.194;2023-10-09T08:12:43;13.15;;;7.28;;
53646;SDS011;39550;52.230;5.194;2023-10-09T08:15:15;12.43;;;7.43;;
53646;SDS011;39550;52.230;5.194;2023-10-09T08:20:22;10.07;;;6.90;;
53646;SDS011;39550;52.230;5.194;2023-10-09T08:22:54;10.57;;;6.68;;
53646;SDS011;39550;52.230;5.194;2023-10-09T08:25:24;10.13;;;6.93;;
53646;SDS011;39550;52.230;5.194;2023-10-09T08:27:54;9.80;;;6.72;;
53646;SDS011;39550;52.230;5.194;2023-10-09T08:30:22;11.38;;;6.85;;
53646;SDS011;39550;52.230;5.194;2023-10-09T08:32:51;10.13;;;6.88;;
53646;SDS011;39550;52.230;5.194;2023-10-09T08:35:29;11.98;;;6.97;;
53646;SDS011;39550;52.230;5.194;2023-10-09T08:37:58;11.98;;;7.47;;
53646;SDS011;39550;52.230;5.194;2023-10-09T08:40:35;10.55;;;6.85;;
53646;SDS011;39550;52.230;5.194;2023-10-09T08:43:26;11.52;;;7.45;;
53646;SDS011;39550;52.230;5.194;2023-10-09T08:45:56;10.63;;;6.55;;
53646;SDS011;39550;52.230;5.194;2023-10-09T08:48:28;10.25;;;6.50;;
53646;SDS011;39550;52.230;5.194;2023-10-09T08:50:55;10.07;;;6.47;;
53646;SDS011;39550;52.230;5.194;2023-10-09T08:53:22;11.60;;;6.63;;
53646;SDS011;39550;52.230;5.194;2023-10-09T08:55:49;10.13;;;6.85;;
53646;SDS011;39550;52.230;5.194;2023-10-09T08:58:16;10.82;;;6.72;;
53646;SDS011;39550;52.230;5.194;2023-10-09T09:00:48;11.70;;;7.18;;
53646;SDS011;39550;52.230;5.194;2023-10-09T09:03:14;8.83;;;6.67;;
53646;SDS011;39550;52.230;5.194;2023-10-09T09:05:42;10.93;;;6.47;;
53646;SDS011;39550;52.230;5.194;2023-10-09T09:08:21;11.70;;;7.43;;
53646;SDS011;39550;52.230;5.194;2023-10-09T09:10:57;10.30;;;7.03;;
53646;SDS011;39550;52.230;5.194;2023-10-09T09:16:24;10.60;;;6.57;;
53646;SDS011;39550;52.230;5.194;2023-10-09T09:19:03;10.75;;;6.63;;
53646;SDS011;39550;52.230;5.194;2023-10-09T09:21:35;10.67;;;6.37;;
53646;SDS011;39550;52.230;5.194;2023-10-09T09:24:10;9.60;;;6.70;;
53646;SDS011;39550;52.230;5.194;2023-10-09T09:26:46;9.32;;;6.50;;
53646;SDS011;39550;52.230;5.194;2023-10-09T09:29:12;9.88;;;6.80;;
53646;SDS011;39550;52.230;5.194;2023-10-09T09:31:38;10.93;;;6.97;;
53646;SDS011;39550;52.230;5.194;2023-10-09T09:34:17;10.10;;;6.60;;
53646;SDS011;39550;52.230;5.194;2023-10-09T09:36:53;8.88;;;5.90;;
53646;SDS011;39550;52.230;5.194;2023-10-09T09:39:22;13.98;;;6.20;;
53646;SDS011;39550;52.230;5.194;2023-10-09T09:41:56;10.07;;;6.90;;
53646;SDS011;39550;52.230;5.194;2023-10-09T09:44:29;10.85;;;6.97;;
53646;SDS011;39550;52.230;5.194;2023-10-09T09:46:59;10.93;;;6.35;;
53646;SDS011;39550;52.230;5.194;2023-10-09T09:49:27;8.70;;;6.05;;
53646;SDS011;39550;52.230;5.194;2023-10-09T09:51:58;9.55;;;6.30;;
53646;SDS011;39550;52.230;5.194;2023-10-09T09:54:26;11.00;;;6.93;;
53646;SDS011;39550;52.230;5.194;2023-10-09T09:56:53;9.75;;;6.50;;
53646;SDS011;39550;52.230;5.194;2023-10-09T09:59:19;12.23;;;7.22;;
53646;SDS011;39550;52.230;5.194;2023-10-09T10:01:53;10.90;;;6.57;;
53646;SDS011;39550;52.230;5.194;2023-10-09T10:04:31;11.82;;;7.40;;
53646;SDS011;39550;52.230;5.194;2023-10-09T10:07:00;11.32;;;6.60;;
53646;SDS011;39550;52.230;5.194;2023-10-09T10:09:37;11.10;;;6.68;;
53646;SDS011;39550;52.230;5.194;2023-10-09T10:12:04;12.40;;;7.38;;
53646;SDS011;39550;52.230;5.194;2023-10-09T10:17:24;9.90;;;6.55;;
53646;SDS011;39550;52.230;5.194;2023-10-09T10:22:41;10.32;;;6.28;;
53646;SDS011;39550;52.230;5.194;2023-10-09T10:25:33;11.73;;;6.82;;
53646;SDS011;39550;52.230;5.194;2023-10-09T10:30:50;10.63;;;6.30;;
53646;SDS011;39550;52.230;5.194;2023-10-09T10:33:16;11.65;;;7.15;;
53646;SDS011;39550;52.230;5.194;2023-10-09T10:35:42;11.85;;;6.45;;
53646;SDS011;39550;52.230;5.194;2023-10-09T10:38:27;11.23;;;7.78;;
53646;SDS011;39550;52.230;5.194;2023-10-09T10:41:11;12.50;;;6.57;;
53646;SDS011;39550;52.230;5.194;2023-10-09T10:43:38;11.65;;;6.80;;
53646;SDS011;39550;52.230;5.194;2023-10-09T10:46:26;10.02;;;6.45;;
53646;SDS011;39550;52.230;5.194;2023-10-09T10:48:54;10.77;;;6.57;;
53646;SDS011;39550;52.230;5.194;2023-10-09T10:51:40;12.57;;;6.50;;
53646;SDS011;39550;52.230;5.194;2023-10-09T10:54:07;12.98;;;6.80;;
53646;SDS011;39550;52.230;5.194;2023-10-09T10:57:02;10.45;;;6.13;;
53646;SDS011;39550;52.230;5.194;2023-10-09T10:59:32;10.13;;;6.22;;
53646;SDS011;39550;52.230;5.194;2023-10-09T11:02:10;9.02;;;6.30;;
53646;SDS011;39550;52.230;5.194;2023-10-09T11:04:37;11.23;;;6.90;;
53646;SDS011;39550;52.230;5.194;2023-10-09T11:07:08;10.45;;;7.10;;
53646;SDS011;39550;52.230;5.194;2023-10-09T11:09:47;9.82;;;6.20;;
53646;SDS011;39550;52.230;5.194;2023-10-09T11:12:26;10.82;;;6.50;;
53646;SDS011;39550;52.230;5.194;2023-10-09T11:15:03;9.70;;;6.38;;
53646;SDS011;39550;52.230;5.194;2023-10-09T11:20:54;9.65;;;6.45;;
53646;SDS011;39550;52.230;5.194;2023-10-09T11:23:28;9.50;;;5.88;;
53646;SDS011;39550;52.230;5.194;2023-10-09T11:26:12;10.70;;;6.03;;
53646;SDS011;39550;52.230;5.194;2023-10-09T11:29:12;9.88;;;6.03;;
53646;SDS011;39550;52.230;5.194;2023-10-09T11:31:40;12.55;;;6.63;;
53646;SDS011;39550;52.230;5.194;2023-10-09T11:34:20;9.70;;;5.88;;
53646;SDS011;39550;52.230;5.194;2023-10-09T11:37:04;12.77;;;6.40;;
53646;SDS011;39550;52.230;5.194;2023-10-09T11:39:41;11.65;;;6.90;;
53646;SDS011;39550;52.230;5.194;2023-10-09T11:42:22;12.87;;;6.73;;
53646;SDS011;39550;52.230;5.194;2023-10-09T11:45:20;11.20;;;6.35;;
53646;SDS011;39550;52.230;5.194;2023-10-09T11:47:54;9.98;;;5.82;;
53646;SDS011;39550;52.230;5.194;2023-10-09T11:53:41;9.75;;;6.00;;
53646;SDS011;39550;52.230;5.194;2023-10-09T11:56:22;8.00;;;5.68;;
53646;SDS011;39550;52.230;5.194;2023-10-09T11:58:52;9.50;;;6.20;;
53646;SDS011;39550;52.230;5.194;2023-10-09T12:01:19;13.10;;;6.13;;
53646;SDS011;39550;52.230;5.194;2023-10-09T12:03:49;9.15;;;5.65;;
53646;SDS011;39550;52.230;5.194;2023-10-09T12:06:19;8.32;;;5.72;;
53646;SDS011;39550;52.230;5.194;2023-10-09T12:08:47;10.90;;;6.30;;
53646;SDS011;39550;52.230;5.194;2023-10-09T12:11:23;9.68;;;6.20;;
53646;SDS011;39550;52.230;5.194;2023-10-09T12:13:54;8.88;;;6.38;;
53646;SDS011;39550;52.230;5.194;2023-10-09T12:16:23;9.75;;;6.28;;
53646;SDS011;39550;52.230;5.194;2023-10-09T12:18:58;10.52;;;6.00;;
53646;SDS011;39550;52.230;5.194;2023-10-09T12:21:30;8.80;;;5.88;;
53646;SDS011;39550;52.230;5.194;2023-10-09T12:23:55;9.82;;;5.88;;
53646;SDS011;39550;52.230;5.194;2023-10-09T12:26:23;8.88;;;6.20;;
53646;SDS011;39550;52.230;5.194;2023-10-09T12:28:52;9.90;;;6.18;;
53646;SDS011;39550;52.230;5.194;2023-10-09T12:31:20;9.85;;;6.53;;
53646;SDS011;39550;52.230;5.194;2023-10-09T12:33:59;12.05;;;5.82;;
53646;SDS011;39550;52.230;5.194;2023-10-09T12:36:32;8.95;;;6.10;;
53646;SDS011;39550;52.230;5.194;2023-10-09T12:39:04;11.40;;;6.00;;
53646;SDS011;39550;52.230;5.194;2023-10-09T12:41:42;8.07;;;6.20;;
53646;SDS011;39550;52.230;5.194;2023-10-09T12:44:08;10.50;;;5.90;;
53646;SDS011;39550;52.230;5.194;2023-10-09T12:46:48;10.55;;;6.72;;
53646;SDS011;39550;52.230;5.194;2023-10-09T12:49:31;9.88;;;5.93;;
53646;SDS011;39550;52.230;5.194;2023-10-09T12:51:59;12.07;;;6.30;;
53646;SDS011;39550;52.230;5.194;2023-10-09T12:54:39;10.05;;;6.00;;
53646;SDS011;39550;52.230;5.194;2023-10-09T12:57:11;9.13;;;5.85;;
53646;SDS011;39550;52.230;5.194;2023-10-09T12:59:39;11.13;;;6.50;;
53646;SDS011;39550;52.230;5.194;2023-10-09T13:02:10;10.65;;;6.13;;
53646;SDS011;39550;52.230;5.194;2023-10-09T13:04:53;10.48;;;6.28;;
53646;SDS011;39550;52.230;5.194;2023-10-09T13:07:19;9.00;;;5.78;;
53646;SDS011;39550;52.230;5.194;2023-10-09T13:09:53;9.57;;;5.70;;
53646;SDS011;39550;52.230;5.194;2023-10-09T13:12:56;9.25;;;6.10;;
53646;SDS011;39550;52.230;5.194;2023-10-09T13:15:25;9.07;;;5.80;;
53646;SDS011;39550;52.230;5.194;2023-10-09T13:17:52;8.65;;;5.85;;
53646;SDS011;39550;52.230;5.194;2023-10-09T13:20:18;10.35;;;6.18;;
53646;SDS011;39550;52.230;5.194;2023-10-09T13:22:50;11.20;;;5.80;;
53646;SDS011;39550;52.230;5.194;2023-10-09T13:25:18;10.00;;;6.20;;
53646;SDS011;39550;52.230;5.194;2023-10-09T13:27:49;11.45;;;6.18;;
53646;SDS011;39550;52.230;5.194;2023-10-09T13:30:24;11.23;;;6.63;;
53646;SDS011;39550;52.230;5.194;2023-10-09T13:32:54;10.00;;;6.15;;
53646;SDS011;39550;52.230;5.194;2023-10-09T13:35:20;8.68;;;5.75;;
53646;SDS011;39550;52.230;5.194;2023-10-09T13:37:52;10.52;;;6.03;;
53646;SDS011;39550;52.230;5.194;2023-10-09T13:40:21;10.20;;;5.72;;
53646;SDS011;39550;52.230;5.194;2023-10-09T13:42:54;10.60;;;6.22;;
53646;SDS011;39550;52.230;5.194;2023-10-09T13:45:27;9.75;;;5.95;;
53646;SDS011;39550;52.230;5.194;2023-10-09T13:47:58;10.50;;;5.90;;
53646;SDS011;39550;52.230;5.194;2023-10-09T13:50:24;10.32;;;6.47;;
53646;SDS011;39550;52.230;5.194;2023-10-09T13:52:54;9.60;;;6.30;;
53646;SDS011;39550;52.230;5.194;2023-10-09T13:55:21;10.70;;;5.90;;
53646;SDS011;39550;52.230;5.194;2023-10-09T13:57:47;9.73;;;6.13;;
53646;SDS011;39550;52.230;5.194;2023-10-09T14:00:15;11.65;;;6.35;;
53646;SDS011;39550;52.230;5.194;2023-10-09T14:02:58;11.88;;;6.60;;
53646;SDS011;39550;52.230;5.194;2023-10-09T14:05:40;8.82;;;5.82;;
53646;SDS011;39550;52.230;5.194;2023-10-09T14:11:07;9.10;;;5.55;;
53646;SDS011;39550;52.230;5.194;2023-10-09T14:13:42;11.30;;;6.20;;
53646;SDS011;39550;52.230;5.194;2023-10-09T14:16:08;10.50;;;6.07;;
53646;SDS011;39550;52.230;5.194;2023-10-09T14:18:49;9.00;;;5.55;;
53646;SDS011;39550;52.230;5.194;2023-10-09T14:21:21;11.00;;;6.80;;
53646;SDS011;39550;52.230;5.194;2023-10-09T14:23:50;11.38;;;7.00;;
53646;SDS011;39550;52.230;5.194;2023-10-09T14:26:15;10.27;;;5.75;;
53646;SDS011;39550;52.230;5.194;2023-10-09T14:28:43;10.43;;;6.50;;
53646;SDS011;39550;52.230;5.194;2023-10-09T14:31:09;12.88;;;6.32;;
53646;SDS011;39550;52.230;5.194;2023-10-09T14:33:37;10.00;;;6.32;;
53646;SDS011;39550;52.230;5.194;2023-10-09T14:36:05;12.73;;;7.15;;
53646;SDS011;39550;52.230;5.194;2023-10-09T14:38:44;9.82;;;6.18;;
53646;SDS011;39550;52.230;5.194;2023-10-09T14:41:12;9.65;;;6.03;;
53646;SDS011;39550;52.230;5.194;2023-10-09T14:43:38;8.93;;;6.07;;
53646;SDS011;39550;52.230;5.194;2023-10-09T14:46:04;11.63;;;7.28;;
53646;SDS011;39550;52.230;5.194;2023-10-09T14:48:36;9.23;;;6.03;;
53646;SDS011;39550;52.230;5.194;2023-10-09T14:51:04;11.40;;;6.20;;
53646;SDS011;39550;52.230;5.194;2023-10-09T14:53:30;8.30;;;6.20;;
53646;SDS011;39550;52.230;5.194;2023-10-09T14:55:55;10.77;;;6.53;;
53646;SDS011;39550;52.230;5.194;2023-10-09T14:58:28;11.40;;;5.88;;
53646;SDS011;39550;52.230;5.194;2023-10-09T15:00:55;9.73;;;6.03;;
53646;SDS011;39550;52.230;5.194;2023-10-09T15:03:21;10.20;;;6.88;;
53646;SDS011;39550;52.230;5.194;2023-10-09T15:05:48;10.45;;;6.35;;
53646;SDS011;39550;52.230;5.194;2023-10-09T15:08:15;11.40;;;6.05;;
53646;SDS011;39550;52.230;5.194;2023-10-09T15:10:46;10.50;;;6.53;;
53646;SDS011;39550;52.230;5.194;2023-10-09T15:13:21;11.70;;;5.90;;
53646;SDS011;39550;52.230;5.194;2023-10-09T15:15:53;12.02;;;7.65;;
53646;SDS011;39550;52.230;5.194;2023-10-09T15:18:21;15.25;;;9.00;;
53646;SDS011;39550;52.230;5.194;2023-10-09T15:20:50;13.80;;;8.82;;
53646;SDS011;39550;52.230;5.194;2023-10-09T15:25:44;21.80;;;9.07;;
53646;SDS011;39550;52.230;5.194;2023-10-09T15:28:11;18.63;;;8.88;;
53646;SDS011;39550;52.230;5.194;2023-10-09T15:30:37;17.83;;;8.95;;
53646;SDS011;39550;52.230;5.194;2023-10-09T15:33:07;13.43;;;8.50;;
53646;SDS011;39550;52.230;5.194;2023-10-09T15:35:33;12.02;;;8.05;;
53646;SDS011;39550;52.230;5.194;2023-10-09T15:38:02;14.15;;;8.35;;
53646;SDS011;39550;52.230;5.194;2023-10-09T15:40:31;13.30;;;9.27;;
53646;SDS011;39550;52.230;5.194;2023-10-09T15:43:00;12.77;;;8.27;;
53646;SDS011;39550;52.230;5.194;2023-10-09T15:45:26;14.90;;;9.05;;
53646;SDS011;39550;52.230;5.194;2023-10-09T15:47:54;19.50;;;9.30;;
53646;SDS011;39550;52.230;5.194;2023-10-09T15:50:20;14.70;;;8.32;;
53646;SDS011;39550;52.230;5.194;2023-10-09T15:52:49;17.05;;;8.63;;
53646;SDS011;39550;52.230;5.194;2023-10-09T15:57:46;12.57;;;8.40;;